createdAt,value
2022-10-26T00:54:04.960Z,6.05
2022-10-26T01:12:13.305Z,4.50
2022-10-26T02:09:54.359Z,4.50
2022-10-26T12:16:26.819Z,3.17
2022-10-26T12:47:03.242Z,2.20
2022-10-26T13:09:20.271Z,2.20
2022-10-26T13:11:54.829Z,2.63
2022-10-26T13:16:56.628Z,1.80
2022-10-26T13:19:36.976Z,2.03
2022-10-26T13:22:13.111Z,2.53
2022-10-26T13:24:51.625Z,2.00
2022-10-26T13:27:45.035Z,2.00
2022-10-26T13:30:49.902Z,2.55
2022-10-26T13:33:34.166Z,2.08
2022-10-26T13:36:10.354Z,2.20
2022-10-26T13:38:41.503Z,2.35
2022-10-26T13:41:17.224Z,2.22
2022-10-26T13:43:51.609Z,2.22
2022-10-26T13:46:29.602Z,1.73
2022-10-26T13:49:06.319Z,2.00
2022-10-26T13:51:40.711Z,1.70
2022-10-26T13:54:20.210Z,2.00
2022-10-26T13:57:06.450Z,1.85
2022-10-26T13:59:38.291Z,1.70
2022-10-26T14:02:27.303Z,1.95
2022-10-26T14:05:09.364Z,1.90
2022-10-26T14:07:43.728Z,2.67
2022-10-26T14:10:27.074Z,1.60
2022-10-26T14:13:00.551Z,1.67
2022-10-26T14:15:34.278Z,1.75
2022-10-26T14:18:03.961Z,1.90
2022-10-26T14:20:36.794Z,1.98
2022-10-26T14:23:07.992Z,1.85
2022-10-26T14:25:42.495Z,1.85
2022-10-26T14:28:29.462Z,1.88
2022-10-26T14:31:16.729Z,2.55
2022-10-26T14:33:52.473Z,1.92
2022-10-26T14:36:26.239Z,2.10
2022-10-26T14:39:08.657Z,2.70
2022-10-26T14:44:16.545Z,2.03
2022-10-26T14:46:49.035Z,1.80
2022-10-26T14:49:23.547Z,1.77
2022-10-26T14:52:03.693Z,2.00
2022-10-26T14:54:39.427Z,2.03
2022-10-26T17:03:35.533Z,4.45
2022-10-26T17:06:12.049Z,4.80
2022-10-26T17:08:54.930Z,4.70
2022-10-26T17:11:26.626Z,9.27
2022-10-26T17:13:55.884Z,8.20
2022-10-26T17:16:35.637Z,6.68
2022-10-26T17:19:09.657Z,7.05
2022-10-26T17:25:05.837Z,6.55
2022-10-26T17:33:06.501Z,4.15
2022-10-26T17:35:41.035Z,3.75
2022-10-26T17:38:30.677Z,3.35
2022-10-26T17:41:19.254Z,4.55
2022-10-26T17:44:00.474Z,5.82
2022-10-26T17:47:00.768Z,8.38
2022-10-26T17:49:39.673Z,14.43
2022-10-26T17:54:45.584Z,8.63
2022-10-26T17:57:30.275Z,6.75
2022-10-26T18:00:12.946Z,5.13
2022-10-26T18:02:52.349Z,5.00
2022-10-26T18:05:31.924Z,5.43
2022-10-26T18:13:17.133Z,5.47
2022-10-26T18:15:47.571Z,5.20
2022-10-26T18:18:21.715Z,5.45
2022-10-26T18:21:01.550Z,5.22
2022-10-26T18:23:34.537Z,5.55
2022-10-26T18:26:13.373Z,5.70
2022-10-26T18:31:14.948Z,4.82
2022-10-26T18:33:45.800Z,5.43
2022-10-26T18:36:15.577Z,10.35
2022-10-26T18:38:51.694Z,7.35
2022-10-26T18:41:21.091Z,6.53
2022-10-26T18:43:53.575Z,6.20
2022-10-26T18:46:30.314Z,6.75
2022-10-26T18:49:03.893Z,6.75
2022-10-26T18:51:39.165Z,8.45
2022-10-26T18:54:09.647Z,10.43
2022-10-26T18:56:43.473Z,9.57
2022-10-26T18:59:21.525Z,8.48
2022-10-26T19:01:51.495Z,7.38
2022-10-26T19:04:20.656Z,6.95
2022-10-26T19:06:53.928Z,7.00
2022-10-26T19:09:33.084Z,8.02
2022-10-26T19:12:17.106Z,8.38
2022-10-26T19:18:23.457Z,8.57
2022-10-26T19:20:53.422Z,8.68
2022-10-26T19:23:27.798Z,8.13
2022-10-26T19:25:57.019Z,7.65
2022-10-26T19:28:31.279Z,7.88
2022-10-26T19:31:09.040Z,7.25
2022-10-26T19:33:40.210Z,7.35
2022-10-26T19:36:12.746Z,8.00
2022-10-26T19:38:41.719Z,8.05
2022-10-26T19:41:12.480Z,8.23
2022-10-26T19:43:41.678Z,8.45
2022-10-26T19:46:12.375Z,7.30
2022-10-26T19:48:42.547Z,5.57
2022-10-26T19:51:15.596Z,5.50
2022-10-26T19:53:45.313Z,7.05
2022-10-26T19:56:14.782Z,5.63
2022-10-26T19:58:48.297Z,6.60
2022-10-26T20:01:20.466Z,8.75
2022-10-26T20:03:54.608Z,8.15
2022-10-26T20:06:28.717Z,8.10
2022-10-26T20:08:57.389Z,7.85
2022-10-26T20:11:28.126Z,8.45
2022-10-26T20:13:56.829Z,8.43
2022-10-26T20:16:27.493Z,8.68
2022-10-26T20:18:57.909Z,8.23
2022-10-26T20:21:43.164Z,8.20
2022-10-26T20:24:18.004Z,7.80
2022-10-26T20:26:59.408Z,8.50
2022-10-26T20:29:38.158Z,8.45
2022-10-26T20:32:08.507Z,7.78
2022-10-26T20:34:46.359Z,6.90
2022-10-26T20:37:19.210Z,6.90
2022-10-26T20:39:48.205Z,7.20
2022-10-26T20:42:22.918Z,7.22
2022-10-26T20:51:22.143Z,6.32
2022-10-26T20:53:59.067Z,5.95
2022-10-26T20:59:08.305Z,5.32
2022-10-26T21:01:46.230Z,6.70
2022-10-26T21:04:17.022Z,7.75
2022-10-26T21:06:50.373Z,7.32
2022-10-26T21:12:04.305Z,8.10
2022-10-26T21:14:42.978Z,9.20
2022-10-26T21:17:13.363Z,9.43
2022-10-26T21:19:44.656Z,7.55
2022-10-26T21:22:18.865Z,5.35
2022-10-26T21:25:04.013Z,5.30
2022-10-26T21:27:38.656Z,6.03
2022-10-26T21:30:22.443Z,5.55
2022-10-26T21:33:00.473Z,5.85
2022-10-26T21:46:09.934Z,4.97
2022-10-26T21:48:46.955Z,4.70
2022-10-26T21:51:29.124Z,4.85
2022-10-26T21:59:19.772Z,3.25
2022-10-26T22:01:55.917Z,4.57
2022-10-26T22:04:28.498Z,4.32
2022-10-26T22:06:59.817Z,4.43
2022-10-26T22:09:44.796Z,4.07
2022-10-26T22:15:16.333Z,4.20
2022-10-26T22:20:21.492Z,4.35
2022-10-26T22:22:51.373Z,4.22
2022-10-26T22:25:20.170Z,4.38
2022-10-26T22:27:51.968Z,4.70
2022-10-26T22:30:23.568Z,4.43
2022-10-26T22:32:55.111Z,4.45
2022-10-26T22:35:30.730Z,4.00
2022-10-26T22:38:06.573Z,3.70
2022-10-26T22:40:36.036Z,4.40
2022-10-26T22:43:06.777Z,3.88
2022-10-26T22:45:42.889Z,3.88
2022-10-26T22:48:11.919Z,4.20
2022-10-26T22:50:41.041Z,3.60
2022-10-26T22:53:13.871Z,2.67
2022-10-26T22:55:45.172Z,3.65
2022-10-26T22:58:15.005Z,3.75
2022-10-26T23:00:46.057Z,4.78
2022-10-26T23:03:16.510Z,6.75
2022-10-26T23:05:55.737Z,8.70
2022-10-26T23:08:25.487Z,9.32
2022-10-26T23:11:01.452Z,10.00
2022-10-26T23:13:31.295Z,9.02
2022-10-26T23:16:25.750Z,9.25
2022-10-26T23:21:28.404Z,10.80
2022-10-26T23:23:57.769Z,10.52
2022-10-26T23:26:28.857Z,10.25
2022-10-26T23:28:58.234Z,8.80
2022-10-26T23:31:30.940Z,8.73
2022-10-26T23:34:02.264Z,9.68
2022-10-26T23:36:32.277Z,9.75
2022-10-26T23:39:04.790Z,9.32
2022-10-26T23:41:36.834Z,7.70
2022-10-26T23:44:10.410Z,7.00
2022-10-26T23:46:43.637Z,5.18
2022-10-26T23:49:14.215Z,4.88
2022-10-26T23:51:51.083Z,4.88
2022-10-26T23:54:22.183Z,4.32
2022-10-26T23:56:51.252Z,4.95
2022-10-26T23:59:28.294Z,4.72
